Time;durP1;ratioP1;P1;durP2;ratioP2;P2;SDS_P1;SDS_P2;PMS_P1;PMS_P2;Temp;Humidity;BMP_temperature;BMP_pressure;BME280_temperature;BME280_humidity;BME280_pressure;Samples;Min_cycle;Max_cycle;Signal;HPM_P1;HPM_P2
2021/08/22 00:01:44;;;;;;;10.72;5.30;;;;;;;14.42;69.25;101690.34;1748253;82;21035;-91
2021/08/22 00:04:11;;;;;;;7.90;5.17;;;;;;;14.37;69.25;101690.66;1748406;80;20979;-91
2021/08/22 00:06:37;;;;;;;10.90;5.12;;;;;;;14.30;69.21;101689.62;1748233;82;21721;-91
2021/08/22 00:09:05;;;;;;;8.68;4.95;;;;;;;14.23;69.25;101686.35;1748203;82;20957;-91
2021/08/22 00:11:31;;;;;;;7.78;4.80;;;;;;;14.16;69.27;101685.28;1748228;82;20991;-91
2021/08/22 00:13:58;;;;;;;8.18;5.03;;;;;;;14.10;69.37;101680.28;1748352;80;21039;-92
2021/08/22 00:16:25;;;;;;;7.03;4.62;;;;;;;14.05;69.46;101680.14;1748383;82;20977;-92
2021/08/22 00:18:52;;;;;;;7.60;4.83;;;;;;;13.95;69.50;101682.99;1748299;82;21184;-92
2021/08/22 00:21:18;;;;;;;9.78;5.33;;;;;;;13.85;69.57;101681.37;1748241;82;21007;-90
2021/08/22 00:23:45;;;;;;;8.03;5.03;;;;;;;13.75;69.65;101681.56;1748324;80;21022;-91
2021/08/22 00:26:12;;;;;;;9.00;4.90;;;;;;;13.66;69.80;101680.87;1748304;81;21155;-91
2021/08/22 00:28:38;;;;;;;11.97;5.97;;;;;;;13.59;69.95;101677.19;1748070;81;21469;-91
2021/08/22 00:31:05;;;;;;;9.23;5.17;;;;;;;13.51;70.11;101674.73;1748282;82;21784;-92
2021/08/22 00:33:32;;;;;;;7.70;4.90;;;;;;;13.45;70.20;101677.66;1755044;80;20975;-91
2021/08/22 00:35:59;;;;;;;9.45;5.40;;;;;;;13.38;70.34;101677.89;1749412;79;22079;-91
2021/08/22 00:38:25;;;;;;;7.72;5.20;;;;;;;13.30;70.45;101684.29;1764588;80;21124;-91
2021/08/22 00:40:52;;;;;;;8.60;5.60;;;;;;;13.22;70.62;101684.03;1748159;81;20987;-91
2021/08/22 00:43:19;;;;;;;8.78;5.97;;;;;;;13.14;70.78;101684.25;1748121;80;21871;-93
2021/08/22 00:45:46;;;;;;;10.82;6.15;;;;;;;13.08;70.97;101685.80;1748122;80;21023;-92
2021/08/22 00:48:12;;;;;;;10.55;6.17;;;;;;;13.00;71.14;101689.11;1733558;81;21015;-93
2021/08/22 00:50:39;;;;;;;18.87;6.58;;;;;;;12.95;71.33;101689.42;1748405;82;21020;-93
2021/08/22 00:53:06;;;;;;;10.60;6.85;;;;;;;12.89;71.51;101678.64;1748396;82;20976;-93
2021/08/22 00:55:33;;;;;;;11.33;6.05;;;;;;;12.86;71.62;101681.61;1748377;82;21733;-93
2021/08/22 00:58:00;;;;;;;9.75;6.22;;;;;;;12.81;71.79;101677.52;1748356;82;20972;-93
2021/08/22 01:00:30;;;;;;;8.88;6.35;;;;;;;12.77;71.91;101683.56;1748290;82;20995;-93
2021/08/22 01:03:10;;;;;;;10.25;6.17;;;;;;;12.74;72.04;101680.38;1748361;82;21035;-93
2021/08/22 01:05:45;;;;;;;10.00;6.03;;;;;;;12.70;72.16;101674.97;1748406;82;20976;-94
2021/08/22 01:08:36;;;;;;;7.97;6.33;;;;;;;12.67;72.25;101676.19;1748340;82;22561;-93
2021/08/22 01:11:14;;;;;;;10.13;6.50;;;;;;;12.63;72.29;101673.47;1748273;82;20972;-92
2021/08/22 01:13:57;;;;;;;10.40;6.47;;;;;;;12.59;72.42;101664.98;1748392;82;21472;-92
2021/08/22 01:16:24;;;;;;;10.13;6.78;;;;;;;12.57;72.50;101661.37;1748270;81;21052;-93
2021/08/22 01:18:52;;;;;;;10.38;6.55;;;;;;;12.56;72.59;101664.88;1733840;81;21587;-93
2021/08/22 01:21:20;;;;;;;13.10;6.97;;;;;;;12.53;72.63;101669.16;1748382;82;22546;-93
2021/08/22 01:24:06;;;;;;;13.22;7.10;;;;;;;12.47;72.63;101665.02;1748390;82;20977;-91
2021/08/22 01:26:33;;;;;;;10.50;6.35;;;;;;;12.44;72.71;101669.75;1747348;80;21090;-92
2021/08/22 01:29:01;;;;;;;9.03;6.53;;;;;;;12.40;72.80;101668.75;1748429;81;20980;-93
2021/08/22 01:31:29;;;;;;;11.12;6.40;;;;;;;12.37;72.81;101667.36;1748383;82;20956;-93
2021/08/22 01:33:57;;;;;;;10.10;6.22;;;;;;;12.35;72.88;101666.81;1748358;82;21741;-93
2021/08/22 01:36:24;;;;;;;9.00;6.22;;;;;;;12.33;72.97;101665.88;1748477;82;20999;-93
2021/08/22 01:38:54;;;;;;;8.15;6.60;;;;;;;12.35;73.14;101665.49;1733753;82;20952;-92
2021/08/22 01:41:23;;;;;;;10.28;6.00;;;;;;;12.35;73.18;101662.86;1734018;81;20989;-93
2021/08/22 01:43:51;;;;;;;7.80;5.62;;;;;;;12.36;73.23;101665.98;1733543;81;21011;-93
2021/08/22 01:46:36;;;;;;;7.70;5.78;;;;;;;12.36;73.25;101663.34;1748487;82;21782;-93
2021/08/22 01:49:07;;;;;;;9.78;5.78;;;;;;;12.34;73.25;101663.28;1748439;82;20940;-92
2021/08/22 01:51:34;;;;;;;9.93;6.12;;;;;;;12.33;73.27;101672.07;1733991;82;21014;-94
2021/08/22 01:54:07;;;;;;;9.63;6.22;;;;;;;12.33;73.30;101663.23;1748418;82;21461;-92
2021/08/22 01:56:36;;;;;;;10.15;6.72;;;;;;;12.32;73.36;101661.45;1748880;82;21003;-91
2021/08/22 01:59:03;;;;;;;9.13;5.70;;;;;;;12.31;73.38;101666.25;1748519;82;21744;-92
2021/08/22 02:01:34;;;;;;;8.53;5.62;;;;;;;12.30;73.36;101667.11;1748479;80;21034;-92
2021/08/22 02:04:26;;;;;;;7.65;5.58;;;;;;;12.24;73.33;101659.45;1748470;80;20995;-93
2021/08/22 02:07:13;;;;;;;7.42;5.85;;;;;;;12.20;73.35;101662.84;1748446;81;21122;-93
2021/08/22 02:09:46;;;;;;;8.08;5.12;;;;;;;12.15;73.36;101664.43;1747765;81;20972;-93
2021/08/22 02:12:15;;;;;;;8.38;5.70;;;;;;;12.12;73.48;101660.36;1748562;82;21723;-93
2021/08/22 02:14:56;;;;;;;8.13;5.12;;;;;;;12.11;73.51;101657.27;1748324;81;20994;-92
2021/08/22 02:17:27;;;;;;;8.15;5.03;;;;;;;12.12;73.64;101658.15;1758394;80;21474;-93
2021/08/22 02:19:55;;;;;;;11.18;5.05;;;;;;;12.15;73.74;101657.83;1748433;81;20960;-93
2021/08/22 02:22:23;;;;;;;7.67;4.97;;;;;;;12.20;73.81;101661.92;1748471;82;21564;-93
2021/08/22 02:24:50;;;;;;;7.40;4.50;;;;;;;12.22;73.70;101661.59;1748396;82;22028;-93
2021/08/22 02:27:16;;;;;;;9.05;5.40;;;;;;;12.24;73.68;101664.73;1748455;82;20976;-93
2021/08/22 02:29:53;;;;;;;9.93;4.95;;;;;;;12.25;73.72;101660.34;1748415;82;21500;-93
2021/08/22 02:32:20;;;;;;;9.20;4.67;;;;;;;12.29;73.73;101658.27;1747776;81;20973;-93
2021/08/22 02:34:47;;;;;;;9.73;4.78;;;;;;;12.32;73.69;101655.74;1733775;81;20948;-93
2021/08/22 02:37:13;;;;;;;7.42;5.12;;;;;;;12.35;73.71;101654.94;1748410;82;21830;-93
2021/08/22 02:39:40;;;;;;;6.83;4.72;;;;;;;12.37;73.68;101654.16;1780598;80;21031;-92
2021/08/22 02:42:07;;;;;;;9.63;4.70;;;;;;;12.39;73.67;101648.93;1755774;80;21000;-93
2021/08/22 02:44:34;;;;;;;8.10;4.87;;;;;;;12.39;73.66;101644.53;1748264;82;20983;-93
2021/08/22 02:47:01;;;;;;;9.95;5.60;;;;;;;12.43;73.67;101648.17;1748442;82;20991;-93
2021/08/22 02:49:27;;;;;;;7.53;4.83;;;;;;;12.44;73.61;101646.91;1748480;82;21728;-92
2021/08/22 02:51:54;;;;;;;5.33;4.40;;;;;;;12.42;73.57;101636.69;1748390;81;20956;-92
2021/08/22 02:54:20;;;;;;;7.62;4.30;;;;;;;12.40;73.52;101641.47;1748438;82;20960;-93
2021/08/22 02:56:47;;;;;;;6.45;4.45;;;;;;;12.35;73.47;101637.77;1748427;82;21414;-93
2021/08/22 02:59:14;;;;;;;7.37;4.50;;;;;;;12.31;73.62;101643.37;1733747;82;21603;-92
2021/08/22 03:01:40;;;;;;;12.03;5.55;;;;;;;12.29;73.67;101638.91;1748514;82;21780;-93
2021/08/22 03:04:07;;;;;;;8.43;5.12;;;;;;;12.28;73.77;101639.34;1748375;82;20976;-93
2021/08/22 03:06:34;;;;;;;7.37;4.95;;;;;;;12.30;73.80;101640.72;1748385;80;21496;-93
2021/08/22 03:09:02;;;;;;;5.75;4.35;;;;;;;12.34;73.84;101639.52;1748452;82;21005;-92
2021/08/22 03:11:30;;;;;;;10.13;5.10;;;;;;;12.37;73.83;101640.03;1748468;82;20979;-88
2021/08/22 03:13:57;;;;;;;8.15;5.17;;;;;;;12.39;73.81;101648.93;1748392;82;21800;-92
2021/08/22 03:16:24;;;;;;;8.48;5.97;;;;;;;12.38;73.83;101640.09;1748383;82;21019;-93
2021/08/22 03:18:51;;;;;;;11.28;5.97;;;;;;;12.40;73.85;101645.42;1733855;81;21418;-94
2021/08/22 03:21:18;;;;;;;7.35;5.28;;;;;;;12.43;73.96;101648.17;1748322;82;21327;-93
2021/08/22 03:23:45;;;;;;;7.33;5.67;;;;;;;12.49;73.98;101647.47;1748584;82;21031;-94
2021/08/22 03:26:11;;;;;;;8.45;5.47;;;;;;;12.51;73.97;101646.66;1748262;82;22578;-93
2021/08/22 03:28:38;;;;;;;8.68;5.67;;;;;;;12.55;73.95;101646.33;1748337;82;20952;-94
2021/08/22 03:31:06;;;;;;;7.20;5.00;;;;;;;12.58;73.92;101643.37;1748343;80;20995;-94
2021/08/22 03:33:33;;;;;;;7.60;5.17;;;;;;;12.61;73.86;101646.52;1748202;81;21001;-94
2021/08/22 03:36:00;;;;;;;7.83;5.45;;;;;;;12.64;73.92;101640.91;1748352;82;20963;-94
2021/08/22 03:38:27;;;;;;;9.30;5.35;;;;;;;12.69;73.83;101645.03;1748380;82;21825;-94
2021/08/22 03:40:54;;;;;;;11.53;5.17;;;;;;;12.73;73.79;101646.02;1748117;82;21427;-93
2021/08/22 03:43:20;;;;;;;9.85;5.35;;;;;;;12.74;73.65;101650.44;1748149;81;21437;-93
2021/08/22 03:45:47;;;;;;;9.80;5.03;;;;;;;12.71;73.52;101660.50;1748347;82;20998;-93
2021/08/22 03:48:14;;;;;;;8.78;5.05;;;;;;;12.68;73.48;101657.75;1748301;81;21446;-93
2021/08/22 03:50:41;;;;;;;10.28;5.17;;;;;;;12.64;73.45;101657.19;1748462;82;22389;-94
2021/08/22 03:53:07;;;;;;;6.42;5.12;;;;;;;12.61;73.49;101651.40;1748222;82;21510;-94
2021/08/22 03:55:34;;;;;;;7.53;5.10;;;;;;;12.60;73.48;101656.63;1748339;82;21482;-94
2021/08/22 03:58:07;;;;;;;9.35;6.35;;;;;;;12.61;73.53;101658.00;1733622;82;20995;-94
2021/08/22 04:00:32;;;;;;;7.15;4.20;;;;;;;12.64;73.58;101655.44;1747860;80;21042;-94
2021/08/22 04:02:58;;;;;;;6.58;4.58;;;;;;;12.72;73.61;101658.74;1748604;82;21730;-93
2021/08/22 04:05:25;;;;;;;10.18;5.67;;;;;;;12.79;73.54;101663.38;1748328;82;20972;-94
2021/08/22 04:07:54;;;;;;;7.47;5.00;;;;;;;12.84;73.49;101653.41;1748538;82;21469;-93
2021/08/22 04:10:25;;;;;;;7.20;4.95;;;;;;;12.92;73.41;101663.33;1748106;81;21011;-94
2021/08/22 04:12:56;;;;;;;6.92;4.58;;;;;;;13.00;73.26;101668.40;1748573;80;21054;-94
2021/08/22 04:15:23;;;;;;;8.83;4.67;;;;;;;13.07;73.23;101667.73;1748519;81;21725;-94
2021/08/22 04:17:50;;;;;;;9.05;4.83;;;;;;;13.17;73.15;101660.97;1748400;82;20932;-94
2021/08/22 04:20:17;;;;;;;10.13;4.87;;;;;;;13.38;73.40;101664.67;1748485;82;20928;-94
2021/08/22 04:22:43;;;;;;;12.70;5.22;;;;;;;14.24;74.54;101652.81;1748496;82;21132;-93
2021/08/22 04:25:11;;;;;;;6.58;4.60;;;;;;;14.77;72.78;101651.86;1748553;82;21418;-94
2021/08/22 04:27:41;;;;;;;9.58;5.10;;;;;;;14.86;71.83;101652.06;1748553;82;21745;-94
2021/08/22 04:30:12;;;;;;;8.35;5.05;;;;;;;14.90;71.18;101653.03;1739263;80;20960;-93
2021/08/22 04:32:39;;;;;;;5.10;4.40;;;;;;;15.46;72.16;101651.09;1764292;80;21481;-95
2021/08/22 04:35:09;;;;;;;5.97;4.70;;;;;;;15.69;70.37;101644.88;1732955;82;21039;-94
2021/08/22 04:37:37;;;;;;;7.33;4.45;;;;;;;16.15;71.17;101647.49;1748096;82;21031;-94
2021/08/22 04:40:07;;;;;;;6.08;4.37;;;;;;;17.78;71.90;101650.98;1755283;78;21730;-94
2021/08/22 04:42:34;;;;;;;6.83;4.40;;;;;;;19.54;70.52;101636.52;1756302;78;21078;-94
2021/08/22 04:45:00;;;;;;;5.42;3.83;;;;;;;21.17;68.40;101638.14;1748169;81;21019;-94
2021/08/22 04:47:27;;;;;;;5.92;3.50;;;;;;;22.50;66.24;101636.34;1764653;78;20980;-95
2021/08/22 04:49:54;;;;;;;5.80;3.35;;;;;;;23.70;64.23;101636.59;1748334;82;21517;-95
2021/08/22 04:52:21;;;;;;;4.42;3.20;;;;;;;24.78;61.86;101645.08;1748516;82;22563;-95
2021/08/22 04:54:48;;;;;;;5.40;3.17;;;;;;;25.53;59.80;101641.73;1748429;82;20996;-95
2021/08/22 04:57:18;;;;;;;4.28;3.22;;;;;;;26.09;58.46;101636.80;1748555;82;21011;-95
2021/08/22 04:59:43;;;;;;;5.50;3.15;;;;;;;26.79;57.23;101639.02;1748504;81;21020;-92
2021/08/22 05:02:09;;;;;;;4.40;2.95;;;;;;;27.33;55.53;101619.41;1748286;80;20999;-92
2021/08/22 05:04:36;;;;;;;3.77;3.02;;;;;;;28.17;54.51;101637.88;1748199;81;21677;-92
2021/08/22 05:07:05;;;;;;;4.65;3.08;;;;;;;28.93;53.54;101636.97;1748190;82;20983;-91
2021/08/22 05:09:32;;;;;;;6.45;3.33;;;;;;;29.71;52.15;101634.36;1748224;82;21464;-92
2021/08/22 05:11:59;;;;;;;4.65;3.02;;;;;;;30.30;50.34;101636.02;1748613;82;20991;-92
2021/08/22 05:14:33;;;;;;;5.47;3.25;;;;;;;30.84;49.00;101630.90;1748206;81;21580;-92
2021/08/22 05:17:03;;;;;;;5.25;3.08;;;;;;;31.23;47.53;101636.81;1748392;82;21729;-93
2021/08/22 05:19:30;;;;;;;6.25;3.20;;;;;;;31.37;46.29;101632.97;1748276;82;21054;-92
2021/08/22 05:21:56;;;;;;;4.95;3.17;;;;;;;31.47;45.17;101633.43;1748460;81;20992;-93
2021/08/22 05:24:24;;;;;;;2.58;2.35;;;;;;;31.72;44.90;101637.16;1748337;82;20971;-92
2021/08/22 05:26:50;;;;;;;3.17;2.62;;;;;;;32.05;43.85;101640.06;1748380;82;21000;-91
2021/08/22 05:29:17;;;;;;;4.60;2.60;;;;;;;32.06;42.83;101640.48;1748392;82;21739;-92
2021/08/22 05:31:44;;;;;;;5.78;3.02;;;;;;;31.34;41.93;101640.78;1748220;82;21477;-92
2021/08/22 05:34:10;;;;;;;6.85;2.83;;;;;;;30.22;41.42;101647.22;1748363;82;21478;-92
2021/08/22 05:36:38;;;;;;;2.90;2.30;;;;;;;28.94;41.28;101646.84;1748298;82;21069;-87
2021/08/22 05:39:05;;;;;;;3.25;2.30;;;;;;;27.76;41.51;101645.53;1748460;82;21026;-92
2021/08/22 05:41:31;;;;;;;4.78;2.45;;;;;;;26.63;41.85;101650.22;1748362;82;21745;-92
2021/08/22 05:43:58;;;;;;;5.05;2.70;;;;;;;25.68;42.22;101643.19;1748152;80;21020;-92
2021/08/22 05:46:25;;;;;;;4.12;2.35;;;;;;;24.84;43.17;101647.64;1748528;82;21012;-91
2021/08/22 05:48:54;;;;;;;3.55;2.50;;;;;;;24.20;43.81;101649.71;1748095;80;20952;-92
2021/08/22 05:51:21;;;;;;;2.90;2.20;;;;;;;23.64;44.40;101649.67;1733485;82;20980;-92
2021/08/22 05:53:48;;;;;;;2.62;1.87;;;;;;;23.14;44.92;101647.23;1748257;80;21767;-92
2021/08/22 05:56:15;;;;;;;4.50;2.00;;;;;;;22.58;45.24;101650.09;1748242;82;20991;-92
2021/08/22 05:58:42;;;;;;;3.55;2.30;;;;;;;22.06;45.79;101646.98;1748452;82;20963;-88
2021/08/22 06:01:08;;;;;;;2.37;2.08;;;;;;;21.54;46.22;101646.02;1748498;81;21501;-92
2021/08/22 06:03:37;;;;;;;5.12;2.72;;;;;;;21.06;46.92;101650.26;1748422;82;20992;-92
2021/08/22 06:06:07;;;;;;;2.80;2.50;;;;;;;20.61;47.65;101647.26;1748495;82;21878;-94
2021/08/22 06:08:34;;;;;;;4.10;2.90;;;;;;;20.19;48.27;101649.50;1748546;82;21027;-92
2021/08/22 06:11:04;;;;;;;4.03;2.30;;;;;;;19.83;48.72;101648.17;1734630;81;21003;-92
2021/08/22 06:13:31;;;;;;;5.33;2.80;;;;;;;19.46;49.30;101656.95;1748703;82;20992;-92
2021/08/22 06:15:58;;;;;;;5.05;2.55;;;;;;;19.18;49.84;101650.22;1748520;81;21011;-92
2021/08/22 06:18:24;;;;;;;3.75;2.40;;;;;;;18.89;50.21;101648.74;1748501;82;21748;-92
2021/08/22 06:20:51;;;;;;;4.03;2.52;;;;;;;18.65;50.93;101659.67;1748470;82;21043;-91
2021/08/22 06:23:18;;;;;;;5.47;2.30;;;;;;;18.62;51.43;101655.67;1748524;80;21027;-92
2021/08/22 06:25:45;;;;;;;3.47;2.30;;;;;;;18.55;51.70;101657.84;1748473;81;20975;-91
2021/08/22 06:28:13;;;;;;;5.00;2.52;;;;;;;18.45;51.88;101652.91;1748642;80;21027;-92
2021/08/22 06:30:39;;;;;;;6.42;2.37;;;;;;;18.42;52.24;101651.98;1748429;82;21689;-92
2021/08/22 06:33:06;;;;;;;3.12;2.17;;;;;;;18.35;52.31;101648.81;1748462;81;21019;-92
2021/08/22 06:35:33;;;;;;;5.85;2.33;;;;;;;18.31;52.56;101651.90;1768055;80;20955;-90
2021/08/22 06:37:59;;;;;;;2.75;1.30;;;;;;;18.31;52.78;101649.68;1759590;80;21054;-91
2021/08/22 06:40:29;;;;;;;1.87;1.17;;;;;;;18.28;52.39;101653.20;1748398;81;20995;-92
2021/08/22 06:42:56;;;;;;;7.25;1.80;;;;;;;18.28;52.50;101655.86;1748352;82;21865;-92
2021/08/22 06:45:23;;;;;;;2.30;1.17;;;;;;;18.34;52.58;101658.59;1748173;80;21110;-92
2021/08/22 06:47:53;;;;;;;3.08;2.00;;;;;;;18.36;52.76;101654.61;1748573;82;20991;-86
2021/08/22 06:50:20;;;;;;;3.98;1.80;;;;;;;18.39;52.83;101654.61;1748448;80;21434;-92
2021/08/22 06:52:47;;;;;;;3.72;1.98;;;;;;;18.37;52.97;101655.05;1748567;82;21468;-92
2021/08/22 06:55:13;;;;;;;3.22;1.72;;;;;;;18.40;53.09;101659.08;1748419;82;21694;-93
2021/08/22 06:57:40;;;;;;;2.10;1.65;;;;;;;18.44;53.19;101659.09;1748531;81;20897;-92
2021/08/22 07:00:08;;;;;;;3.12;2.22;;;;;;;18.50;53.39;101664.03;1748537;82;21058;-92
2021/08/22 07:02:35;;;;;;;4.45;2.20;;;;;;;18.54;53.56;101665.83;1748413;82;21003;-92
2021/08/22 07:05:02;;;;;;;4.05;2.40;;;;;;;18.54;53.88;101663.16;1748579;82;21008;-93
2021/08/22 07:07:33;;;;;;;4.40;2.35;;;;;;;18.55;53.96;101662.30;1748386;81;21007;-92
2021/08/22 07:10:00;;;;;;;3.52;2.00;;;;;;;18.55;54.04;101659.63;1748366;81;21433;-92
2021/08/22 07:12:27;;;;;;;4.30;2.60;;;;;;;18.60;54.26;101656.53;1733354;82;33648;-92
2021/08/22 07:14:54;;;;;;;3.92;2.20;;;;;;;18.65;54.25;101653.45;1748313;82;21335;-92
2021/08/22 07:17:22;;;;;;;4.35;2.33;;;;;;;18.62;54.21;101654.34;1748579;82;21429;-92
2021/08/22 07:19:49;;;;;;;4.05;2.12;;;;;;;18.65;54.37;101654.34;1733873;81;22570;-92
2021/08/22 07:22:16;;;;;;;7.30;2.37;;;;;;;18.66;54.24;101652.59;1748314;82;21425;-92
2021/08/22 07:24:43;;;;;;;4.58;1.90;;;;;;;18.64;54.21;101645.91;1748460;82;20999;-92
2021/08/22 07:27:12;;;;;;;4.85;1.90;;;;;;;18.63;54.21;101647.22;1748382;82;21437;-92
2021/08/22 07:29:39;;;;;;;7.35;1.80;;;;;;;18.62;54.16;101648.13;1748293;82;21011;-92
2021/08/22 07:32:09;;;;;;;3.45;1.95;;;;;;;18.64;54.23;101642.36;1748489;82;22401;-91
2021/08/22 07:34:35;;;;;;;7.65;2.00;;;;;;;18.64;54.12;101643.69;1748231;82;20963;-92
2021/08/22 07:37:06;;;;;;;3.52;1.57;;;;;;;18.58;54.15;101645.88;1748340;81;21038;-93
2021/08/22 07:39:34;;;;;;;7.17;4.10;;;;;;;18.58;54.15;101645.88;1748335;82;21692;-92
2021/08/22 07:42:04;;;;;;;4.65;2.10;;;;;;;18.62;54.16;101641.46;1748458;82;20995;-92
2021/08/22 07:44:32;;;;;;;4.67;1.87;;;;;;;18.65;54.25;101639.67;1733188;81;20976;-93
2021/08/22 07:47:00;;;;;;;2.50;1.35;;;;;;;18.71;54.14;101642.81;1734186;82;21000;-91
2021/08/22 07:49:31;;;;;;;3.55;1.57;;;;;;;18.75;54.20;101645.06;1748311;82;20983;-92
2021/08/22 07:51:58;;;;;;;5.65;2.60;;;;;;;18.78;53.93;101641.97;1748397;81;21907;-92
2021/08/22 07:54:25;;;;;;;4.67;1.42;;;;;;;18.77;53.76;101648.62;1748379;81;21000;-92
2021/08/22 07:56:52;;;;;;;3.87;1.55;;;;;;;18.75;53.83;101645.98;1748364;82;21666;-92
2021/08/22 07:59:20;;;;;;;7.22;4.78;;;;;;;18.76;53.78;101645.08;1733733;82;21470;-92
2021/08/22 08:01:51;;;;;;;4.17;2.17;;;;;;;18.78;53.78;101645.98;1748343;82;21480;-92
2021/08/22 08:04:15;;;;;;;2.67;1.57;;;;;;;18.83;53.79;101636.27;1747731;80;20959;-92
2021/08/22 08:06:42;;;;;;;4.40;1.37;;;;;;;18.90;53.92;101633.20;1748474;82;21610;-92
2021/08/22 08:09:09;;;;;;;2.95;1.95;;;;;;;18.98;53.88;101637.23;1748522;82;21680;-93
2021/08/22 08:11:36;;;;;;;3.67;1.98;;;;;;;19.04;53.96;101636.80;1748348;82;21461;-93
2021/08/22 08:14:03;;;;;;;3.47;1.85;;;;;;;19.11;53.82;101644.40;1748325;82;21583;-90
2021/08/22 08:16:30;;;;;;;4.05;1.40;;;;;;;19.20;53.97;101640.44;1748028;81;21081;-91
2021/08/22 08:18:57;;;;;;;5.10;1.57;;;;;;;19.27;53.62;101640.45;1748519;82;20952;-92
2021/08/22 08:21:24;;;;;;;3.02;1.40;;;;;;;19.30;53.53;101640.02;1748456;82;21671;-94
2021/08/22 08:23:51;;;;;;;5.53;1.90;;;;;;;19.34;53.40;101635.58;1748233;82;21067;-92
2021/08/22 08:26:20;;;;;;;4.60;2.22;;;;;;;19.42;53.49;101640.03;1748610;82;20956;-92
2021/08/22 08:28:46;;;;;;;2.52;1.67;;;;;;;19.58;53.29;101643.65;1756114;80;20960;-93
2021/08/22 08:31:13;;;;;;;3.90;1.37;;;;;;;19.74;53.21;101639.70;1752535;80;20992;-93
2021/08/22 08:33:44;;;;;;;4.17;1.30;;;;;;;19.88;53.05;101643.28;1765314;80;20976;-91
2021/08/22 08:36:11;;;;;;;2.77;1.22;;;;;;;20.04;52.94;101642.83;1748552;80;20999;-90
2021/08/22 08:38:40;;;;;;;6.67;4.00;;;;;;;20.21;52.59;101644.16;1733479;82;21457;-93
2021/08/22 08:41:09;;;;;;;2.72;1.70;;;;;;;20.35;52.33;101642.83;1733498;82;21011;-93
2021/08/22 08:43:39;;;;;;;2.77;1.30;;;;;;;20.46;52.10;101637.44;1748390;82;21003;-92
2021/08/22 08:46:13;;;;;;;2.80;1.50;;;;;;;20.54;51.85;101635.66;1748031;80;21943;-92
2021/08/22 08:49:14;;;;;;;1.67;1.37;;;;;;;20.57;51.54;101639.65;1748511;81;21091;-92
2021/08/22 08:52:16;;;;;;;3.45;1.32;;;;;;;20.45;51.06;101644.58;1734022;80;20989;-91
2021/08/22 08:54:55;;;;;;;3.75;1.10;;;;;;;20.35;51.09;101646.84;1734968;81;21563;-93
2021/08/22 08:57:24;;;;;;;2.77;1.30;;;;;;;20.39;51.05;101653.50;1733142;81;21430;-93
2021/08/22 08:59:50;;;;;;;2.55;1.25;;;;;;;20.30;50.67;101645.49;1748353;81;21823;-94
2021/08/22 09:02:23;;;;;;;2.67;1.55;;;;;;;20.23;50.58;101643.71;1748252;82;21011;-93
2021/08/22 09:05:21;;;;;;;1.25;1.15;;;;;;;20.17;50.49;101644.61;1747988;81;20991;-93
2021/08/22 09:08:19;;;;;;;1.70;1.37;;;;;;;20.12;50.48;101649.51;1748088;81;20987;-93
2021/08/22 09:11:22;;;;;;;4.85;1.47;;;;;;;20.12;50.57;101654.43;1748277;82;21473;-93
2021/08/22 09:14:46;;;;;;;2.77;1.20;;;;;;;20.23;50.59;101647.72;1748552;81;21727;-93
2021/08/22 09:17:54;;;;;;;5.53;1.80;;;;;;;20.38;50.62;101649.48;1748444;82;20968;-92
2021/08/22 09:21:08;;;;;;;2.30;1.40;;;;;;;20.54;50.60;101653.93;1748372;82;20984;-92
2021/08/22 09:24:13;;;;;;;3.27;1.32;;;;;;;20.63;50.01;101652.16;1748311;82;20963;-92
2021/08/22 09:27:06;;;;;;;2.65;1.20;;;;;;;20.70;50.12;101655.27;1733606;82;21011;-92
2021/08/22 09:30:22;;;;;;;2.10;1.50;;;;;;;20.83;49.80;101652.99;1747662;81;21805;-92
2021/08/22 09:33:25;;;;;;;3.10;2.00;;;;;;;20.92;49.47;101646.73;1748189;82;21135;-91
2021/08/22 09:36:32;;;;;;;2.20;1.20;;;;;;;20.90;48.99;101649.86;1747063;80;21002;-91
2021/08/22 09:39:36;;;;;;;2.67;1.20;;;;;;;20.91;48.69;101658.31;1748134;82;20975;-92
2021/08/22 09:42:59;;;;;;;1.87;1.57;;;;;;;20.89;48.33;101657.44;1728423;81;21017;-91
2021/08/22 09:46:09;;;;;;;3.85;1.82;;;;;;;20.80;47.79;101654.36;1748126;80;25867;-93
2021/08/22 09:49:06;;;;;;;4.20;1.45;;;;;;;20.67;47.24;101642.80;1748120;81;20987;-93
2021/08/22 09:52:28;;;;;;;2.15;1.57;;;;;;;20.65;47.22;101650.39;1748369;82;21437;-88
2021/08/22 09:55:37;;;;;;;1.85;1.22;;;;;;;20.63;46.76;101640.11;1748218;81;21189;-93
2021/08/22 09:58:45;;;;;;;4.92;1.57;;;;;;;20.64;46.27;101639.23;1748520;82;21015;-92
2021/08/22 10:01:43;;;;;;;3.08;1.65;;;;;;;20.57;46.19;101643.23;1748688;82;22499;-93
2021/08/22 10:04:56;;;;;;;3.47;1.37;;;;;;;20.55;46.06;101637.00;1748527;81;21003;-93
2021/08/22 10:08:05;;;;;;;2.85;1.55;;;;;;;20.48;45.74;101637.02;1748299;81;21489;-92
2021/08/22 10:10:51;;;;;;;2.55;1.25;;;;;;;20.41;45.62;101629.44;1768703;79;21017;-92
2021/08/22 10:13:18;;;;;;;2.12;1.10;;;;;;;20.41;45.56;101629.44;1743821;81;21014;-93
2021/08/22 10:15:46;;;;;;;3.58;1.50;;;;;;;20.42;45.53;101624.55;1763543;80;21724;-93
2021/08/22 10:18:23;;;;;;;2.58;2.12;;;;;;;20.46;45.71;101630.75;1761963;80;20963;-93
2021/08/22 10:20:52;;;;;;;1.62;1.32;;;;;;;20.50;45.54;101629.89;1771104;80;20993;-92
2021/08/22 10:23:43;;;;;;;3.52;2.05;;;;;;;20.48;45.04;101631.22;1763493;80;21160;-92
2021/08/22 10:26:11;;;;;;;3.15;1.45;;;;;;;20.46;44.67;101633.01;1747685;81;21024;-91
2021/08/22 10:29:01;;;;;;;2.80;1.42;;;;;;;20.48;44.32;101628.55;1748588;81;21742;-92
2021/08/22 10:31:56;;;;;;;3.37;1.32;;;;;;;20.53;44.22;101621.41;1748428;80;20960;-92
2021/08/22 10:34:24;;;;;;;3.25;1.40;;;;;;;20.59;44.01;101618.71;1748816;82;21011;-92
2021/08/22 10:36:51;;;;;;;2.58;1.62;;;;;;;20.62;43.99;101629.87;1734283;81;21012;-92
2021/08/22 10:39:26;;;;;;;2.92;1.20;;;;;;;20.67;43.98;101621.39;1734101;82;21481;-93
2021/08/22 10:41:57;;;;;;;1.77;1.37;;;;;;;20.75;43.81;101615.56;1748752;82;21769;-93
2021/08/22 10:44:38;;;;;;;2.55;1.40;;;;;;;20.90;43.82;101620.42;1747868;80;20956;-93
2021/08/22 10:47:21;;;;;;;2.52;1.40;;;;;;;21.05;43.88;101620.81;1733910;82;21445;-92
2021/08/22 10:50:00;;;;;;;4.78;1.32;;;;;;;21.24;43.59;101624.28;1733149;81;20967;-92
2021/08/22 10:52:41;;;;;;;4.30;1.20;;;;;;;21.39;43.52;101617.50;1748630;81;20975;-92
2021/08/22 10:55:21;;;;;;;4.55;1.42;;;;;;;21.54;43.36;101617.42;1748837;82;22452;-93
2021/08/22 10:57:51;;;;;;;2.60;1.30;;;;;;;21.67;43.15;101617.36;1748802;81;20953;-93
2021/08/22 11:00:28;;;;;;;2.15;1.40;;;;;;;21.82;43.05;101615.89;1748847;82;20971;-93
2021/08/22 11:03:00;;;;;;;2.75;1.40;;;;;;;21.93;42.77;101611.34;1748858;82;20995;-92
2021/08/22 11:05:30;;;;;;;5.08;1.45;;;;;;;22.09;42.78;101609.43;1748793;82;20972;-93
2021/08/22 11:08:14;;;;;;;1.40;1.12;;;;;;;22.22;42.56;101614.20;1748814;82;21089;-93
2021/08/22 11:10:41;;;;;;;2.75;1.50;;;;;;;22.32;42.37;101612.38;1722641;82;21011;-93
2021/08/22 11:13:08;;;;;;;4.12;1.45;;;;;;;22.43;42.24;101612.24;1734228;82;21591;-92
2021/08/22 11:15:34;;;;;;;3.98;1.30;;;;;;;22.46;41.95;101617.13;1748772;82;21445;-92
2021/08/22 11:18:01;;;;;;;2.70;1.60;;;;;;;22.43;41.93;101614.92;1734397;82;21089;-93
2021/08/22 11:20:29;;;;;;;4.85;2.22;;;;;;;22.46;42.04;101609.54;1748663;81;22026;-93
2021/08/22 11:23:07;;;;;;;4.10;1.60;;;;;;;22.43;41.93;101617.61;1748777;82;20996;-93
2021/08/22 11:25:35;;;;;;;2.62;1.65;;;;;;;22.38;42.44;101624.38;1733908;82;21425;-92
2021/08/22 11:28:12;;;;;;;2.87;1.60;;;;;;;22.20;42.80;101622.72;1748932;82;21082;-93
2021/08/22 11:30:40;;;;;;;4.85;1.67;;;;;;;22.08;43.07;101616.14;1748476;80;21019;-92
2021/08/22 11:33:07;;;;;;;2.65;1.47;;;;;;;21.97;43.38;101620.70;1749013;82;21733;-91
2021/08/22 11:35:43;;;;;;;4.92;1.62;;;;;;;21.92;43.64;101618.96;1748710;82;20967;-93
2021/08/22 11:38:11;;;;;;;2.65;1.70;;;;;;;21.90;43.67;101615.83;1748879;82;21019;-93
2021/08/22 11:40:39;;;;;;;3.40;1.92;;;;;;;21.77;43.81;101624.41;1748918;82;20960;-92
2021/08/22 11:43:07;;;;;;;3.25;1.80;;;;;;;21.70;43.95;101620.03;1748953;82;20960;-92
2021/08/22 11:45:37;;;;;;;6.85;3.20;;;;;;;21.65;43.87;101622.72;1748756;80;21736;-93
2021/08/22 11:48:04;;;;;;;5.17;3.70;;;;;;;21.63;44.15;101624.98;1748835;82;20924;-92